createdAt,value
2024-02-02T00:00:46.546Z,95982.00
2024-02-02T00:01:46.499Z,95982.00
2024-02-02T00:02:46.581Z,95978.00
2024-02-02T00:03:46.543Z,95979.00
2024-02-02T00:04:46.487Z,95979.00
2024-02-02T00:05:46.517Z,95978.00
2024-02-02T00:06:46.558Z,95976.00
2024-02-02T00:07:46.504Z,95980.00
2024-02-02T00:08:46.522Z,95980.00
2024-02-02T00:09:46.511Z,95977.00
2024-02-02T00:10:46.499Z,95976.00
2024-02-02T00:11:46.595Z,95972.00
2024-02-02T00:12:46.507Z,95970.00
2024-02-02T00:13:46.509Z,95969.00
2024-02-02T00:14:46.556Z,95969.00
2024-02-02T00:15:46.510Z,95969.00
2024-02-02T00:16:46.511Z,95969.00
2024-02-02T00:17:46.540Z,95967.00
2024-02-02T00:18:46.661Z,95968.00
2024-02-02T00:19:46.565Z,95966.00
2024-02-02T00:20:46.578Z,95967.00
2024-02-02T00:21:46.513Z,95973.00
2024-02-02T00:22:46.526Z,95974.00
2024-02-02T00:23:46.571Z,95976.00
2024-02-02T00:24:46.531Z,95976.00
2024-02-02T00:25:46.525Z,95975.00
2024-02-02T00:26:46.584Z,95977.00
2024-02-02T00:27:46.534Z,95976.00
2024-02-02T00:28:46.516Z,95976.00
2024-02-02T00:29:46.585Z,95979.00
2024-02-02T00:30:46.532Z,95977.00
2024-02-02T00:31:46.556Z,95977.00
2024-02-02T00:32:46.731Z,95976.00
2024-02-02T00:33:46.601Z,95975.00
2024-02-02T00:34:46.754Z,95977.00
2024-02-02T00:35:46.609Z,95979.00
2024-02-02T00:36:46.557Z,95978.00
2024-02-02T00:37:46.543Z,95976.00
2024-02-02T00:38:46.671Z,95979.00
2024-02-02T00:39:46.551Z,95983.00
2024-02-02T00:40:46.556Z,95990.00
2024-02-02T00:41:46.552Z,95991.00
2024-02-02T00:42:46.578Z,95995.00
2024-02-02T00:43:46.566Z,95999.00
2024-02-02T00:44:46.566Z,95998.00
2024-02-02T00:45:46.568Z,96000.00
2024-02-02T00:46:46.557Z,96002.00
2024-02-02T00:47:46.649Z,96003.00
2024-02-02T00:48:46.604Z,96003.00
2024-02-02T00:49:46.840Z,96000.00
2024-02-02T00:50:46.569Z,95999.00
2024-02-02T00:51:46.557Z,96000.00
2024-02-02T00:52:46.618Z,96000.00
2024-02-02T00:53:46.588Z,95998.00
2024-02-02T00:54:46.566Z,95997.00
2024-02-02T00:55:46.565Z,95998.00
2024-02-02T00:56:46.631Z,95997.00
2024-02-02T00:57:46.594Z,95996.00
2024-02-02T00:58:46.577Z,95997.00
2024-02-02T00:59:46.576Z,95996.00
2024-02-02T01:00:46.641Z,95993.00
2024-02-02T01:01:46.583Z,95997.00
2024-02-02T01:02:46.609Z,95997.00
2024-02-02T01:03:46.688Z,96001.00
2024-02-02T01:04:46.693Z,96004.00
2024-02-02T01:05:46.641Z,96001.00
2024-02-02T01:06:46.696Z,95999.00
2024-02-02T01:07:46.593Z,95998.00
2024-02-02T01:08:46.613Z,95995.00
2024-02-02T01:09:46.611Z,95991.00
2024-02-02T01:10:46.574Z,95992.00
2024-02-02T01:11:46.580Z,95994.00
2024-02-02T01:12:46.596Z,95998.00
2024-02-02T01:13:46.579Z,96002.00
2024-02-02T01:14:46.580Z,96002.00
2024-02-02T01:15:46.583Z,96002.00
2024-02-02T01:16:46.584Z,96003.00
2024-02-02T01:17:46.712Z,96008.00
2024-02-02T01:18:46.692Z,96009.00
2024-02-02T01:19:46.637Z,96012.00
2024-02-02T01:20:46.587Z,96008.00
2024-02-02T01:21:46.597Z,96009.00
2024-02-02T01:22:46.598Z,96009.00
2024-02-02T01:23:46.593Z,96009.00
2024-02-02T01:24:46.594Z,96006.00
2024-02-02T01:25:46.610Z,96006.00
2024-02-02T01:26:46.611Z,96005.00
2024-02-02T01:27:46.672Z,96007.00
2024-02-02T01:28:46.608Z,96010.00
2024-02-02T01:29:46.615Z,96014.00
2024-02-02T01:30:46.609Z,96017.00
2024-02-02T01:31:46.616Z,96014.00
2024-02-02T01:32:46.625Z,96015.00
2024-02-02T01:33:46.765Z,96013.00
2024-02-02T01:34:46.706Z,96013.00
2024-02-02T01:35:46.606Z,96014.00
2024-02-02T01:36:46.612Z,96013.00
2024-02-02T01:37:46.629Z,96013.00
2024-02-02T01:38:46.617Z,96012.00
2024-02-02T01:39:46.612Z,96014.00
2024-02-02T01:40:46.616Z,96011.00
2024-02-02T01:41:46.614Z,96010.00
2024-02-02T01:42:47.072Z,96008.00
2024-02-02T01:43:46.626Z,96007.00
2024-02-02T01:44:46.616Z,96007.00
2024-02-02T01:45:46.626Z,96010.00
2024-02-02T01:46:46.631Z,96010.00
2024-02-02T01:47:46.687Z,96012.00
2024-02-02T01:48:46.678Z,96013.00
2024-02-02T01:49:46.789Z,96014.00
2024-02-02T01:50:46.637Z,96018.00
2024-02-02T01:51:46.614Z,96022.00
2024-02-02T01:52:46.629Z,96023.00
2024-02-02T01:53:46.631Z,96026.00
2024-02-02T01:54:46.620Z,96026.00
2024-02-02T01:55:46.637Z,96027.00
2024-02-02T01:56:46.630Z,96025.00
2024-02-02T01:57:46.623Z,96019.00
2024-02-02T01:58:46.621Z,96018.00
2024-02-02T01:59:46.634Z,96016.00
2024-02-02T02:00:46.803Z,96018.00
2024-02-02T02:01:46.649Z,96017.00
2024-02-02T02:02:46.654Z,96020.00
2024-02-02T02:03:46.879Z,96021.00
2024-02-02T02:04:46.637Z,96019.00
2024-02-02T02:05:46.699Z,96023.00
2024-02-02T02:06:46.682Z,96023.00
2024-02-02T02:07:46.643Z,96025.00
2024-02-02T02:08:46.647Z,96022.00
2024-02-02T02:09:46.663Z,96017.00
2024-02-02T02:10:46.662Z,96017.00
2024-02-02T02:11:46.677Z,96014.00
2024-02-02T02:12:46.706Z,96015.00
2024-02-02T02:13:46.731Z,96013.00
2024-02-02T02:14:46.741Z,96014.00
2024-02-02T02:15:46.750Z,96014.00
2024-02-02T02:16:46.843Z,96014.00
2024-02-02T02:17:46.848Z,96014.00
2024-02-02T02:18:53.063Z,96013.00
2024-02-02T02:19:47.904Z,96011.00
2024-02-02T02:20:46.816Z,96011.00
2024-02-02T02:21:46.824Z,96007.00
2024-02-02T02:22:46.819Z,96008.00
2024-02-02T02:23:46.818Z,96009.00
2024-02-02T02:24:46.823Z,96006.00
2024-02-02T02:25:46.826Z,96008.00
2024-02-02T02:26:46.827Z,96005.00
2024-02-02T02:27:46.846Z,96004.00
2024-02-02T02:28:46.836Z,96003.00
2024-02-02T02:29:46.836Z,95999.00
2024-02-02T02:30:46.855Z,95998.00
2024-02-02T02:31:46.874Z,95995.00
2024-02-02T02:32:46.919Z,95996.00
2024-02-02T02:33:47.037Z,95994.00
2024-02-02T02:34:46.899Z,95998.00
2024-02-02T02:35:46.873Z,95997.00
2024-02-02T02:36:46.844Z,95998.00
2024-02-02T02:37:46.842Z,95998.00
2024-02-02T02:38:46.846Z,95998.00
2024-02-02T02:39:46.846Z,95999.00
2024-02-02T02:40:46.851Z,96000.00
2024-02-02T02:41:46.844Z,96000.00
2024-02-02T02:42:46.857Z,96001.00
2024-02-02T02:43:46.879Z,95998.00
2024-02-02T02:44:46.849Z,95998.00
2024-02-02T02:45:46.859Z,95997.00
2024-02-02T02:46:46.853Z,95998.00
2024-02-02T02:47:46.944Z,95997.00
2024-02-02T02:48:46.953Z,96000.00
2024-02-02T02:49:46.941Z,95999.00
2024-02-02T02:50:46.904Z,95998.00
2024-02-02T02:51:46.913Z,95998.00
2024-02-02T02:52:46.939Z,95997.00
2024-02-02T02:53:46.954Z,95997.00
2024-02-02T02:54:46.975Z,95995.00
2024-02-02T02:55:47.003Z,95991.00
2024-02-02T02:56:47.001Z,95988.00
2024-02-02T02:57:47.027Z,95989.00
2024-02-02T02:58:47.035Z,95986.00
2024-02-02T02:59:47.053Z,95986.00
2024-02-02T03:00:47.073Z,95986.00
2024-02-02T03:01:47.093Z,95985.00
2024-02-02T03:02:47.098Z,95982.00
2024-02-02T03:03:47.218Z,95978.00
2024-02-02T03:04:47.147Z,95975.00
2024-02-02T03:05:47.145Z,95974.00
2024-02-02T03:06:47.264Z,95972.00
2024-02-02T03:07:47.184Z,95974.00
2024-02-02T03:08:47.242Z,95974.00
2024-02-02T03:09:47.223Z,95973.00
2024-02-02T03:10:47.227Z,95974.00
2024-02-02T03:11:47.252Z,95975.00
2024-02-02T03:12:47.259Z,95976.00
2024-02-02T03:13:47.270Z,95977.00
2024-02-02T03:14:47.311Z,95980.00
2024-02-02T03:15:47.315Z,95982.00
2024-02-02T03:16:47.344Z,95985.00
2024-02-02T03:17:47.402Z,95987.00
2024-02-02T03:18:47.509Z,95989.00
2024-02-02T03:19:47.477Z,95991.00
2024-02-02T03:20:47.395Z,95991.00
2024-02-02T03:21:47.434Z,95992.00
2024-02-02T03:22:47.436Z,95991.00
2024-02-02T03:23:47.441Z,95990.00
2024-02-02T03:24:47.461Z,95991.00
2024-02-02T03:25:47.490Z,95989.00
2024-02-02T03:26:47.492Z,95989.00
2024-02-02T03:27:47.508Z,95989.00
2024-02-02T03:28:47.531Z,95989.00
2024-02-02T03:29:47.645Z,95992.00
2024-02-02T03:30:47.607Z,95991.00
2024-02-02T03:31:47.631Z,95994.00
2024-02-02T03:32:47.743Z,95993.00
2024-02-02T03:33:47.776Z,95993.00
2024-02-02T03:34:47.724Z,95993.00
2024-02-02T03:35:47.683Z,95993.00
2024-02-02T03:36:47.683Z,95993.00
2024-02-02T03:37:47.735Z,95993.00
2024-02-02T03:38:47.723Z,95995.00
2024-02-02T03:39:47.744Z,95999.00
2024-02-02T03:40:47.761Z,96006.00
2024-02-02T03:41:47.781Z,96004.00
2024-02-02T03:42:47.812Z,96003.00
2024-02-02T03:43:47.845Z,96004.00
2024-02-02T03:44:47.840Z,96003.00
2024-02-02T03:45:47.859Z,96002.00
2024-02-02T03:46:47.862Z,96003.00
2024-02-02T03:47:47.897Z,96002.00
2024-02-02T03:48:47.982Z,96004.00
2024-02-02T03:49:47.957Z,96005.00
2024-02-02T03:50:47.958Z,96004.00
2024-02-02T03:51:47.947Z,96006.00
2024-02-02T03:52:47.973Z,96008.00
2024-02-02T03:53:47.987Z,96010.00
2024-02-02T03:54:48.020Z,96012.00
2024-02-02T03:55:48.048Z,96014.00
2024-02-02T03:56:48.037Z,96014.00
2024-02-02T03:57:48.092Z,96011.00
2024-02-02T03:58:48.088Z,96013.00
2024-02-02T03:59:48.121Z,96012.00
2024-02-02T04:00:48.244Z,96014.00
2024-02-02T04:01:48.217Z,96012.00
2024-02-02T04:02:48.203Z,96013.00
2024-02-02T04:03:48.264Z,96012.00
2024-02-02T04:04:48.216Z,96015.00
2024-02-02T04:05:48.315Z,96019.00
2024-02-02T04:06:48.286Z,96019.00
2024-02-02T04:07:48.295Z,96021.00
2024-02-02T04:08:48.323Z,96020.00
2024-02-02T04:09:48.322Z,96022.00
2024-02-02T04:10:48.346Z,96022.00
2024-02-02T04:11:48.362Z,96021.00
2024-02-02T04:12:48.400Z,96022.00
2024-02-02T04:13:48.411Z,96021.00
2024-02-02T04:14:48.436Z,96018.00
2024-02-02T04:15:48.495Z,96018.00
2024-02-02T04:16:48.474Z,96020.00
2024-02-02T04:17:48.535Z,96019.00
2024-02-02T04:18:48.647Z,96021.00
2024-02-02T04:19:48.633Z,96021.00
2024-02-02T04:20:48.594Z,96022.00
2024-02-02T04:21:48.568Z,96023.00
2024-02-02T04:22:48.580Z,96021.00
2024-02-02T04:23:48.612Z,96019.00
2024-02-02T04:24:48.620Z,96018.00
2024-02-02T04:25:48.643Z,96018.00
2024-02-02T04:26:48.690Z,96018.00
2024-02-02T04:27:48.677Z,96019.00
2024-02-02T04:28:55.868Z,96018.00
2024-02-02T04:29:55.904Z,96017.00
2024-02-02T04:30:55.855Z,96016.00
2024-02-02T04:32:03.041Z,96014.00
2024-02-02T04:33:03.103Z,96011.00
2024-02-02T04:34:03.171Z,96008.00
2024-02-02T04:35:03.048Z,96008.00
2024-02-02T04:36:03.068Z,96007.00
2024-02-02T04:37:03.044Z,96007.00
2024-02-02T04:38:03.069Z,96007.00
2024-02-02T04:39:03.086Z,96009.00
2024-02-02T04:40:03.046Z,96010.00
2024-02-02T04:41:03.042Z,96011.00
2024-02-02T04:42:03.100Z,96013.00
2024-02-02T04:43:03.065Z,96013.00
2024-02-02T04:44:03.042Z,96013.00
2024-02-02T04:45:03.068Z,96014.00
2024-02-02T04:46:03.051Z,96015.00
2024-02-02T04:47:03.074Z,96017.00
2024-02-02T04:48:03.156Z,96016.00
2024-02-02T04:49:03.362Z,96018.00
2024-02-02T04:50:03.059Z,96019.00
2024-02-02T04:51:03.101Z,96019.00
2024-02-02T04:52:03.059Z,96019.00
2024-02-02T04:53:03.063Z,96014.00
2024-02-02T04:54:03.111Z,96013.00
2024-02-02T04:55:03.113Z,96014.00
2024-02-02T04:56:03.068Z,96014.00
2024-02-02T04:57:03.091Z,96017.00
2024-02-02T04:58:03.079Z,96023.00
2024-02-02T04:59:03.070Z,96023.00
2024-02-02T05:00:03.210Z,96023.00
2024-02-02T05:01:03.067Z,96024.00
2024-02-02T05:02:05.924Z,96021.00
2024-02-02T05:03:03.090Z,96019.00
2024-02-02T05:04:03.695Z,96019.00
2024-02-02T05:05:03.229Z,96016.00
2024-02-02T05:06:03.098Z,96014.00
2024-02-02T05:07:03.078Z,96014.00
2024-02-02T05:08:03.105Z,96011.00
2024-02-02T05:09:03.111Z,96012.00
2024-02-02T05:10:03.100Z,96011.00
2024-02-02T05:11:03.091Z,96012.00
2024-02-02T05:12:03.089Z,96014.00
2024-02-02T05:13:03.108Z,96016.00
2024-02-02T05:14:03.149Z,96017.00
2024-02-02T05:15:03.143Z,96017.00
2024-02-02T05:16:03.082Z,96019.00
2024-02-02T05:17:03.091Z,96016.00
2024-02-02T05:18:03.193Z,96015.00
2024-02-02T05:19:03.153Z,96016.00
2024-02-02T05:20:03.098Z,96017.00
2024-02-02T05:21:03.144Z,96017.00
2024-02-02T05:22:03.097Z,96019.00
2024-02-02T05:23:03.104Z,96022.00
2024-02-02T05:24:13.485Z,96026.00
2024-02-02T05:25:04.115Z,96024.00
2024-02-02T05:26:03.127Z,96027.00
2024-02-02T05:27:03.152Z,96028.00
2024-02-02T05:28:03.108Z,96030.00
2024-02-02T05:29:03.098Z,96033.00
2024-02-02T05:30:03.158Z,96034.00
2024-02-02T05:31:03.122Z,96036.00
2024-02-02T05:32:03.099Z,96038.00
2024-02-02T05:33:03.180Z,96039.00
2024-02-02T05:34:03.216Z,96041.00
2024-02-02T05:35:03.395Z,96043.00
2024-02-02T05:36:03.212Z,96043.00
2024-02-02T05:37:03.258Z,96050.00
2024-02-02T05:38:03.349Z,96051.00
2024-02-02T05:39:03.419Z,96048.00
2024-02-02T05:40:03.432Z,96048.00
2024-02-02T05:41:03.495Z,96053.00
2024-02-02T05:42:03.677Z,96053.00
2024-02-02T05:43:03.616Z,96057.00
2024-02-02T05:44:03.661Z,96056.00
2024-02-02T05:45:03.757Z,96055.00
2024-02-02T05:46:03.805Z,96056.00
2024-02-02T05:47:03.862Z,96054.00
2024-02-02T05:48:04.062Z,96058.00
2024-02-02T05:49:04.031Z,96059.00
2024-02-02T05:50:04.144Z,96059.00
2024-02-02T05:51:04.285Z,96061.00
2024-02-02T05:52:04.301Z,96062.00
2024-02-02T05:53:04.307Z,96064.00
2024-02-02T05:54:04.409Z,96066.00
2024-02-02T05:55:04.468Z,96070.00
2024-02-02T05:56:04.517Z,96070.00
2024-02-02T05:57:04.593Z,96072.00
2024-02-02T05:58:04.652Z,96071.00
2024-02-02T05:59:04.720Z,96070.00
2024-02-02T06:00:04.918Z,96072.00
2024-02-02T06:01:04.892Z,96071.00
2024-02-02T06:02:04.932Z,96073.00
2024-02-02T06:03:05.089Z,96074.00
2024-02-02T06:04:05.168Z,96076.00
2024-02-02T06:05:05.136Z,96076.00
2024-02-02T06:06:05.290Z,96081.00
2024-02-02T06:07:05.364Z,96081.00
2024-02-02T06:08:05.349Z,96084.00
2024-02-02T06:09:05.558Z,96085.00
2024-02-02T06:10:05.488Z,96086.00
2024-02-02T06:11:05.549Z,96089.00
2024-02-02T06:12:05.711Z,96091.00
2024-02-02T06:13:05.686Z,96095.00
2024-02-02T06:14:05.780Z,96095.00
2024-02-02T06:15:05.842Z,96097.00
2024-02-02T06:16:05.877Z,96100.00
2024-02-02T06:17:05.919Z,96100.00
2024-02-02T06:18:06.063Z,96100.00
2024-02-02T06:19:06.125Z,96101.00
2024-02-02T06:20:06.144Z,96101.00
2024-02-02T06:21:06.179Z,96107.00
2024-02-02T06:22:06.209Z,96106.00
2024-02-02T06:23:07.197Z,96105.00
2024-02-02T06:24:06.365Z,96108.00
2024-02-02T06:25:06.474Z,96110.00
2024-02-02T06:26:06.429Z,96107.00
2024-02-02T06:27:06.564Z,96105.00
2024-02-02T06:28:06.572Z,96107.00
2024-02-02T06:29:06.577Z,96106.00
2024-02-02T06:30:06.709Z,96107.00
2024-02-02T06:31:06.799Z,96111.00
2024-02-02T06:32:06.749Z,96119.00
2024-02-02T06:33:06.881Z,96117.00
2024-02-02T06:34:06.958Z,96126.00
2024-02-02T06:35:06.993Z,96126.00
2024-02-02T06:36:06.995Z,96130.00
2024-02-02T06:37:07.002Z,96132.00
2024-02-02T06:38:07.115Z,96133.00
2024-02-02T06:39:07.193Z,96133.00
2024-02-02T06:40:07.144Z,96136.00
2024-02-02T06:41:07.172Z,96134.00
2024-02-02T06:42:07.234Z,96137.00
2024-02-02T06:43:07.243Z,96136.00
2024-02-02T06:44:07.279Z,96137.00
2024-02-02T06:45:07.385Z,96139.00
2024-02-02T06:46:07.325Z,96137.00
2024-02-02T06:47:07.357Z,96139.00
2024-02-02T06:48:07.420Z,96136.00
2024-02-02T06:49:07.415Z,96137.00
2024-02-02T06:50:07.422Z,96139.00
2024-02-02T06:51:07.509Z,96137.00
2024-02-02T06:52:07.455Z,96140.00
2024-02-02T06:53:07.747Z,96142.00
2024-02-02T06:54:07.576Z,96146.00
2024-02-02T06:55:07.640Z,96147.00
2024-02-02T06:56:07.746Z,96146.00
2024-02-02T06:57:08.700Z,96147.00
2024-02-02T06:58:07.824Z,96152.00
2024-02-02T06:59:07.884Z,96146.00
2024-02-02T07:00:07.995Z,96143.00
2024-02-02T07:01:08.080Z,96144.00
2024-02-02T07:02:08.031Z,96144.00
2024-02-02T07:03:08.188Z,96145.00
2024-02-02T07:04:08.294Z,96147.00
2024-02-02T07:05:08.189Z,96150.00
2024-02-02T07:06:08.339Z,96149.00
2024-02-02T07:07:08.315Z,96150.00
2024-02-02T07:08:08.297Z,96151.00
2024-02-02T07:09:08.415Z,96150.00
2024-02-02T07:10:08.376Z,96150.00
2024-02-02T07:11:08.397Z,96150.00
2024-02-02T07:12:08.441Z,96145.00
2024-02-02T07:13:08.470Z,96142.00
2024-02-02T07:14:08.485Z,96146.00
2024-02-02T07:15:08.525Z,96148.00
2024-02-02T07:16:08.535Z,96147.00
2024-02-02T07:17:08.555Z,96148.00
2024-02-02T07:18:08.636Z,96143.00
2024-02-02T07:19:08.654Z,96141.00
2024-02-02T07:20:08.661Z,96144.00
2024-02-02T07:21:08.840Z,96147.00
2024-02-02T07:22:08.627Z,96145.00
2024-02-02T07:23:08.634Z,96146.00
2024-02-02T07:24:08.708Z,96144.00
2024-02-02T07:25:08.657Z,96149.00
2024-02-02T07:26:08.687Z,96149.00
2024-02-02T07:27:08.687Z,96153.00
2024-02-02T07:28:08.729Z,96154.00
2024-02-02T07:29:08.717Z,96152.00
2024-02-02T07:30:08.739Z,96153.00
2024-02-02T07:31:08.783Z,96155.00
2024-02-02T07:32:08.821Z,96156.00
2024-02-02T07:33:08.947Z,96160.00
2024-02-02T07:34:09.103Z,96161.00
2024-02-02T07:35:08.996Z,96161.00
2024-02-02T07:36:09.120Z,96162.00
2024-02-02T07:37:09.053Z,96164.00
2024-02-02T07:38:09.125Z,96163.00
2024-02-02T07:39:09.134Z,96164.00
2024-02-02T07:40:09.170Z,96164.00
2024-02-02T07:41:09.178Z,96166.00
2024-02-02T07:42:09.235Z,96166.00
2024-02-02T07:43:09.264Z,96170.00
2024-02-02T07:44:09.223Z,96173.00
2024-02-02T07:45:09.263Z,96175.00
2024-02-02T07:46:11.482Z,96173.00
2024-02-02T07:47:09.282Z,96171.00
2024-02-02T07:48:09.383Z,96168.00
2024-02-02T07:49:09.420Z,96173.00
2024-02-02T07:50:09.297Z,96174.00
2024-02-02T07:51:09.338Z,96173.00
2024-02-02T07:52:09.305Z,96171.00
2024-02-02T07:53:09.727Z,96169.00
2024-02-02T07:54:09.316Z,96167.00
2024-02-02T07:55:09.307Z,96166.00
2024-02-02T07:56:09.332Z,96166.00
2024-02-02T07:57:09.309Z,96167.00
2024-02-02T07:58:09.302Z,96171.00
2024-02-02T07:59:09.332Z,96169.00
2024-02-02T08:00:09.354Z,96170.00
2024-02-02T08:01:09.328Z,96168.00
2024-02-02T08:02:09.302Z,96169.00
2024-02-02T08:03:12.122Z,96171.00
2024-02-02T08:04:09.356Z,96171.00
2024-02-02T08:05:09.470Z,96170.00
2024-02-02T08:06:09.391Z,96174.00
2024-02-02T08:07:09.444Z,96175.00
2024-02-02T08:08:09.757Z,96174.00
2024-02-02T08:09:09.348Z,96173.00
2024-02-02T08:10:09.361Z,96170.00
2024-02-02T08:11:09.333Z,96174.00
2024-02-02T08:12:09.339Z,96178.00
2024-02-02T08:13:10.471Z,96181.00
2024-02-02T08:14:09.317Z,96183.00
2024-02-02T08:15:09.437Z,96186.00
2024-02-02T08:16:09.321Z,96189.00
2024-02-02T08:17:09.346Z,96190.00
2024-02-02T08:18:09.477Z,96193.00
2024-02-02T08:19:09.404Z,96198.00
2024-02-02T08:20:09.399Z,96198.00
2024-02-02T08:21:09.427Z,96205.00
2024-02-02T08:22:09.331Z,96205.00
2024-02-02T08:23:09.329Z,96205.00
2024-02-02T08:24:09.375Z,96204.00
2024-02-02T08:25:09.337Z,96201.00
2024-02-02T08:26:09.344Z,96204.00
2024-02-02T08:27:09.358Z,96204.00
2024-02-02T08:28:09.352Z,96203.00
2024-02-02T08:29:09.354Z,96198.00
2024-02-02T08:30:09.494Z,96195.00
2024-02-02T08:31:09.347Z,96196.00
2024-02-02T08:32:09.364Z,96194.00
2024-02-02T08:33:09.555Z,96194.00
2024-02-02T08:34:09.393Z,96194.00
2024-02-02T08:35:09.366Z,96191.00
2024-02-02T08:36:09.388Z,96194.00
2024-02-02T08:37:09.354Z,96194.00
2024-02-02T08:38:09.385Z,96195.00
2024-02-02T08:39:09.377Z,96198.00
2024-02-02T08:40:09.359Z,96197.00
2024-02-02T08:41:09.356Z,96202.00
2024-02-02T08:42:09.400Z,96204.00
2024-02-02T08:43:09.363Z,96202.00
2024-02-02T08:44:09.385Z,96200.00
2024-02-02T08:45:09.380Z,96198.00
2024-02-02T08:46:09.379Z,96199.00
2024-02-02T08:47:09.396Z,96200.00
2024-02-02T08:48:09.520Z,96198.00
2024-02-02T08:49:09.492Z,96198.00
2024-02-02T08:50:09.440Z,96195.00
2024-02-02T08:51:09.418Z,96192.00
2024-02-02T08:52:09.392Z,96186.00
2024-02-02T08:53:09.408Z,96181.00
2024-02-02T08:54:09.510Z,96183.00
2024-02-02T08:55:09.507Z,96183.00
2024-02-02T08:56:09.475Z,96182.00
2024-02-02T08:57:09.543Z,96178.00
2024-02-02T08:58:09.593Z,96174.00
2024-02-02T08:59:09.599Z,96168.00
2024-02-02T09:00:09.647Z,96168.00
2024-02-02T09:01:09.617Z,96170.00
2024-02-02T09:02:09.635Z,96172.00
2024-02-02T09:03:09.772Z,96175.00
2024-02-02T09:04:09.839Z,96176.00
2024-02-02T09:05:09.708Z,96174.00
2024-02-02T09:06:09.800Z,96170.00
2024-02-02T09:07:09.806Z,96171.00
2024-02-02T09:08:09.781Z,96173.00
2024-02-02T09:09:09.900Z,96172.00
2024-02-02T09:10:10.027Z,96173.00
2024-02-02T09:11:09.891Z,96169.00
2024-02-02T09:12:09.999Z,96169.00
2024-02-02T09:13:09.939Z,96165.00
2024-02-02T09:14:10.136Z,96166.00
2024-02-02T09:15:10.024Z,96160.00
2024-02-02T09:16:10.048Z,96161.00
2024-02-02T09:17:10.048Z,96164.00
2024-02-02T09:18:10.196Z,96164.00
2024-02-02T09:19:10.190Z,96165.00
2024-02-02T09:20:10.201Z,96164.00
2024-02-02T09:21:10.266Z,96161.00
2024-02-02T09:22:10.228Z,96160.00
2024-02-02T09:23:10.274Z,96159.00
2024-02-02T09:24:10.352Z,96155.00
2024-02-02T09:25:10.453Z,96157.00
2024-02-02T09:26:10.425Z,96151.00
2024-02-02T09:27:10.500Z,96146.00
2024-02-02T09:28:10.558Z,96140.00
2024-02-02T09:29:10.750Z,96139.00
2024-02-02T09:30:10.667Z,96139.00
2024-02-02T09:31:10.614Z,96140.00
2024-02-02T09:32:10.772Z,96142.00
2024-02-02T09:33:10.866Z,96140.00
2024-02-02T09:34:11.379Z,96139.00
2024-02-02T09:35:10.859Z,96145.00
2024-02-02T09:36:10.927Z,96146.00
2024-02-02T09:37:10.884Z,96142.00
2024-02-02T09:38:10.923Z,96139.00
2024-02-02T09:39:11.148Z,96139.00
2024-02-02T09:40:10.931Z,96137.00
2024-02-02T09:41:10.976Z,96135.00
2024-02-02T09:42:11.068Z,96135.00
2024-02-02T09:43:11.298Z,96135.00
2024-02-02T09:44:11.015Z,96139.00
2024-02-02T09:45:11.125Z,96144.00
2024-02-02T09:46:11.132Z,96143.00
2024-02-02T09:47:11.225Z,96143.00
2024-02-02T09:48:11.438Z,96143.00
2024-02-02T09:49:11.446Z,96143.00
2024-02-02T09:50:11.719Z,96143.00
2024-02-02T09:51:11.371Z,96142.00
2024-02-02T09:52:11.362Z,96140.00
2024-02-02T09:53:11.362Z,96141.00
2024-02-02T09:54:11.424Z,96139.00
2024-02-02T09:55:11.395Z,96142.00
2024-02-02T09:56:11.454Z,96143.00
2024-02-02T09:57:11.478Z,96144.00
2024-02-02T09:58:11.433Z,96143.00
2024-02-02T09:59:11.420Z,96140.00
2024-02-02T10:00:11.435Z,96141.00
2024-02-02T10:01:11.489Z,96142.00
2024-02-02T10:02:11.436Z,96142.00
2024-02-02T10:03:11.473Z,96142.00
2024-02-02T10:04:12.789Z,96145.00
2024-02-02T10:05:12.119Z,96144.00
2024-02-02T10:06:11.750Z,96141.00
2024-02-02T10:07:11.533Z,96137.00
2024-02-02T10:08:11.493Z,96134.00
2024-02-02T10:09:11.569Z,96134.00
2024-02-02T10:10:11.514Z,96136.00
2024-02-02T10:11:11.544Z,96139.00
2024-02-02T10:12:11.664Z,96140.00
2024-02-02T10:13:11.677Z,96144.00
2024-02-02T10:14:11.779Z,96145.00
2024-02-02T10:15:11.874Z,96148.00
2024-02-02T10:16:12.031Z,96148.00
2024-02-02T10:17:11.965Z,96148.00
2024-02-02T10:18:12.116Z,96150.00
2024-02-02T10:19:12.200Z,96150.00
2024-02-02T10:20:12.195Z,96149.00
2024-02-02T10:21:12.293Z,96148.00
2024-02-02T10:22:12.306Z,96149.00
2024-02-02T10:23:12.404Z,96148.00
2024-02-02T10:24:18.168Z,96144.00
2024-02-02T10:25:13.413Z,96146.00
2024-02-02T10:26:12.395Z,96150.00
2024-02-02T10:27:12.422Z,96152.00
2024-02-02T10:28:12.501Z,96154.00
2024-02-02T10:29:12.451Z,96151.00
2024-02-02T10:30:12.458Z,96150.00
2024-02-02T10:31:12.404Z,96149.00
2024-02-02T10:32:12.402Z,96148.00
2024-02-02T10:33:12.956Z,96153.00
2024-02-02T10:34:12.563Z,96152.00
2024-02-02T10:35:12.415Z,96149.00
2024-02-02T10:36:12.452Z,96144.00
2024-02-02T10:37:12.451Z,96139.00
2024-02-02T10:38:12.815Z,96141.00
2024-02-02T10:39:13.791Z,96135.00
2024-02-02T10:40:12.635Z,96134.00
2024-02-02T10:41:12.708Z,96135.00
2024-02-02T10:42:12.801Z,96131.00
2024-02-02T10:43:12.837Z,96128.00
2024-02-02T10:44:12.905Z,96131.00
2024-02-02T10:45:12.974Z,96129.00
2024-02-02T10:46:13.027Z,96127.00
2024-02-02T10:47:13.086Z,96126.00
2024-02-02T10:48:16.502Z,96125.00
2024-02-02T10:49:13.283Z,96121.00
2024-02-02T10:50:13.230Z,96121.00
2024-02-02T10:51:13.160Z,96118.00
2024-02-02T10:52:13.150Z,96115.00
2024-02-02T10:53:13.139Z,96114.00
2024-02-02T10:54:13.193Z,96114.00
2024-02-02T10:55:13.154Z,96115.00
2024-02-02T10:56:13.144Z,96114.00
2024-02-02T10:57:13.188Z,96111.00
2024-02-02T10:58:13.163Z,96107.00
2024-02-02T10:59:13.193Z,96102.00
2024-02-02T11:00:13.185Z,96102.00
2024-02-02T11:01:13.334Z,96102.00
2024-02-02T11:02:13.158Z,96101.00
2024-02-02T11:03:13.256Z,96099.00
2024-02-02T11:04:13.303Z,96098.00
2024-02-02T11:05:13.163Z,96098.00
2024-02-02T11:06:13.264Z,96097.00
2024-02-02T11:07:13.256Z,96096.00
2024-02-02T11:08:13.184Z,96095.00
2024-02-02T11:09:13.184Z,96093.00
2024-02-02T11:10:13.173Z,96092.00
2024-02-02T11:11:13.163Z,96089.00
2024-02-02T11:12:13.206Z,96084.00
2024-02-02T11:13:13.172Z,96079.00
2024-02-02T11:14:13.200Z,96077.00
2024-02-02T11:15:13.226Z,96077.00
2024-02-02T11:16:13.181Z,96077.00
2024-02-02T11:17:13.198Z,96074.00
2024-02-02T11:18:13.255Z,96072.00
2024-02-02T11:19:13.250Z,96073.00
2024-02-02T11:20:13.173Z,96071.00
2024-02-02T11:21:13.227Z,96070.00
2024-02-02T11:22:13.176Z,96067.00
2024-02-02T11:23:13.206Z,96065.00
2024-02-02T11:24:13.278Z,96063.00
2024-02-02T11:25:13.212Z,96062.00
2024-02-02T11:26:13.200Z,96059.00
2024-02-02T11:27:13.231Z,96057.00
2024-02-02T11:28:13.204Z,96057.00
2024-02-02T11:29:13.388Z,96059.00
2024-02-02T11:30:13.212Z,96057.00
2024-02-02T11:31:13.219Z,96057.00
2024-02-02T11:32:13.268Z,96057.00
2024-02-02T11:33:13.500Z,96059.00
2024-02-02T11:34:13.875Z,96059.00
2024-02-02T11:35:13.428Z,96062.00
2024-02-02T11:36:13.508Z,96060.00
2024-02-02T11:37:13.564Z,96062.00
2024-02-02T11:38:13.674Z,96064.00
2024-02-02T11:39:13.724Z,96065.00
2024-02-02T11:40:13.779Z,96067.00
2024-02-02T11:41:13.838Z,96066.00
2024-02-02T11:42:13.889Z,96062.00
2024-02-02T11:43:14.344Z,96063.00
2024-02-02T11:44:14.013Z,96061.00
2024-02-02T11:45:14.102Z,96063.00